Time;durP1;ratioP1;P1;durP2;ratioP2;P2;SDS_P1;SDS_P2;PMS_P1;PMS_P2;Temp;Humidity;BMP_temperature;BMP_pressure;BME280_temperature;BME280_humidity;BME280_pressure;Samples;Min_cycle;Max_cycle;Signal;HPM_P1;HPM_P2
2021/09/25 00:00:00;;;;;;;14.73;7.95;;;16.90;99.90;;;;;;4841091;29;20022;-88
2021/09/25 00:02:25;;;;;;;12.27;7.75;;;16.90;99.90;;;;;;4841319;29;20030;-88
2021/09/25 00:04:51;;;;;;;11.23;8.00;;;16.90;99.90;;;;;;4841003;29;20036;-88
2021/09/25 00:07:17;;;;;;;10.85;8.00;;;16.90;99.90;;;;;;4841260;29;20034;-88
2021/09/25 00:09:43;;;;;;;10.55;8.00;;;16.90;99.90;;;;;;4839861;29;20030;-89
2021/09/25 00:12:14;;;;;;;13.38;7.20;;;16.80;99.90;;;;;;4839944;29;20400;-88
2021/09/25 00:14:41;;;;;;;9.68;7.55;;;16.80;99.90;;;;;;4841274;29;20088;-88
2021/09/25 00:17:09;;;;;;;13.57;8.93;;;16.80;99.90;;;;;;4840939;29;20058;-88
2021/09/25 00:19:35;;;;;;;9.45;7.80;;;16.70;99.90;;;;;;4840893;29;20018;-88
2021/09/25 00:22:01;;;;;;;12.15;8.50;;;16.70;99.90;;;;;;4839323;29;20066;-88
2021/09/25 00:24:27;;;;;;;12.40;8.00;;;16.70;99.90;;;;;;4840803;29;20022;-88
2021/09/25 00:26:53;;;;;;;14.20;9.18;;;16.60;99.90;;;;;;4840777;29;20042;-88
2021/09/25 00:29:19;;;;;;;11.27;8.82;;;16.60;99.90;;;;;;4846324;29;20026;-90
2021/09/25 00:31:45;;;;;;;11.27;8.00;;;16.70;99.90;;;;;;4843179;29;20029;-88
2021/09/25 00:34:12;;;;;;;12.43;8.63;;;16.70;99.90;;;;;;4846466;29;20479;-88
2021/09/25 00:36:39;;;;;;;11.20;8.32;;;16.60;99.90;;;;;;4848786;29;20022;-88
2021/09/25 00:39:06;;;;;;;13.52;7.75;;;16.70;99.90;;;;;;4828849;29;20500;-88
2021/09/25 00:41:32;;;;;;;12.88;7.68;;;16.60;99.90;;;;;;4850960;29;20036;-87
2021/09/25 00:43:58;;;;;;;10.00;7.70;;;16.60;99.90;;;;;;4857298;29;20086;-88
2021/09/25 00:46:24;;;;;;;10.73;7.60;;;16.70;99.90;;;;;;4852555;29;20038;-88
2021/09/25 00:48:49;;;;;;;12.75;8.15;;;16.70;99.90;;;;;;4848324;29;20105;-87
2021/09/25 00:51:16;;;;;;;14.32;7.40;;;16.70;99.90;;;;;;4857674;29;20149;-89
2021/09/25 00:53:43;;;;;;;10.05;7.85;;;16.70;99.90;;;;;;4857920;29;20030;-88
2021/09/25 00:56:10;;;;;;;11.18;7.95;;;16.70;99.90;;;;;;4858468;29;20040;-87
2021/09/25 00:58:37;;;;;;;12.70;7.82;;;16.70;99.90;;;;;;4838852;29;20026;-88
2021/09/25 01:01:04;;;;;;;11.73;7.78;;;16.70;99.90;;;;;;4855603;29;20026;-88
2021/09/25 01:03:29;;;;;;;11.40;7.30;;;16.70;99.90;;;;;;4852852;29;20045;-88
2021/09/25 01:05:55;;;;;;;10.98;7.65;;;16.70;99.90;;;;;;4841386;29;20072;-89
2021/09/25 01:08:24;;;;;;;10.55;7.53;;;16.70;99.90;;;;;;4824211;29;20044;-88
2021/09/25 01:10:51;;;;;;;9.70;8.07;;;16.60;99.90;;;;;;4853251;29;20069;-88
2021/09/25 01:13:18;;;;;;;9.00;7.95;;;16.60;99.90;;;;;;4840443;29;20069;-88
2021/09/25 01:15:44;;;;;;;10.23;7.75;;;16.70;99.90;;;;;;4847841;29;20058;-88
2021/09/25 01:18:10;;;;;;;13.15;7.65;;;16.60;99.90;;;;;;4839804;29;20034;-88
2021/09/25 01:20:35;;;;;;;9.18;7.70;;;16.60;99.90;;;;;;4850630;29;20033;-88
2021/09/25 01:23:01;;;;;;;10.75;7.32;;;16.60;99.90;;;;;;4824589;29;20026;-88
2021/09/25 01:25:27;;;;;;;9.40;8.02;;;16.60;99.90;;;;;;4839443;29;20505;-88
2021/09/25 01:27:52;;;;;;;8.85;7.68;;;16.70;99.90;;;;;;4841456;29;20022;-88
2021/09/25 01:30:19;;;;;;;11.90;7.47;;;16.70;99.90;;;;;;4850608;29;20391;-88
2021/09/25 01:32:48;;;;;;;10.95;6.82;;;16.70;99.90;;;;;;4839187;29;20385;-88
2021/09/25 01:35:15;;;;;;;10.45;7.50;;;16.80;99.90;;;;;;4842794;29;20057;-88
2021/09/25 01:37:40;;;;;;;10.52;7.35;;;16.80;99.90;;;;;;4823616;29;20023;-88
2021/09/25 01:40:08;;;;;;;12.18;7.35;;;16.80;99.90;;;;;;4842389;29;20041;-88
2021/09/25 01:42:34;;;;;;;13.63;6.93;;;16.90;99.90;;;;;;4823615;29;20517;-88
2021/09/25 01:45:00;;;;;;;8.07;6.35;;;16.90;99.90;;;;;;4839299;29;20041;-88
2021/09/25 01:47:26;;;;;;;9.70;6.78;;;17.00;99.90;;;;;;4826168;29;20427;-88
2021/09/25 01:49:51;;;;;;;9.80;6.55;;;17.00;99.90;;;;;;4826106;29;20042;-88
2021/09/25 01:52:18;;;;;;;10.40;6.18;;;17.00;99.90;;;;;;4841677;29;20041;-88
2021/09/25 01:54:44;;;;;;;9.07;6.72;;;17.00;99.90;;;;;;4842923;29;20488;-88
2021/09/25 01:57:10;;;;;;;11.40;6.70;;;17.10;99.90;;;;;;4826100;29;20030;-88
2021/09/25 01:59:35;;;;;;;8.90;6.40;;;17.10;99.90;;;;;;4842680;29;20498;-88
2021/09/25 02:02:02;;;;;;;9.75;6.63;;;17.10;99.90;;;;;;4842549;29;20273;-88
2021/09/25 02:04:28;;;;;;;10.65;6.15;;;17.20;99.90;;;;;;4842870;29;20054;-88
2021/09/25 02:06:53;;;;;;;10.05;6.20;;;17.20;99.90;;;;;;4842526;29;20080;-88
2021/09/25 02:09:19;;;;;;;10.45;6.90;;;17.20;99.90;;;;;;4842552;29;20445;-88
2021/09/25 02:11:45;;;;;;;10.02;6.32;;;17.30;99.90;;;;;;4842579;29;20029;-87
2021/09/25 02:14:10;;;;;;;8.68;6.15;;;17.30;99.90;;;;;;4842438;29;20106;-88
2021/09/25 02:16:36;;;;;;;8.60;6.72;;;17.40;99.90;;;;;;4822917;29;20034;-88
2021/09/25 02:19:03;;;;;;;6.97;6.20;;;17.40;99.90;;;;;;4823099;29;20101;-88
2021/09/25 02:21:29;;;;;;;9.13;5.80;;;17.40;99.90;;;;;;4843107;29;20025;-88
2021/09/25 02:23:55;;;;;;;8.88;6.30;;;17.40;99.90;;;;;;4842663;29;20037;-87
2021/09/25 02:26:20;;;;;;;15.20;6.05;;;17.40;99.90;;;;;;4842900;29;20034;-88
2021/09/25 02:28:46;;;;;;;9.57;5.63;;;17.50;99.90;;;;;;4841524;29;20205;-88
2021/09/25 02:31:12;;;;;;;9.00;6.20;;;17.40;99.90;;;;;;4842900;29;20109;-88
2021/09/25 02:33:37;;;;;;;8.52;5.85;;;17.50;99.90;;;;;;4825925;29;20030;-88
2021/09/25 02:36:03;;;;;;;12.70;6.22;;;17.50;99.90;;;;;;4842422;29;20480;-88
2021/09/25 02:38:29;;;;;;;10.88;5.57;;;17.50;99.90;;;;;;4842351;29;20041;-88
2021/09/25 02:40:55;;;;;;;10.25;6.13;;;17.60;99.90;;;;;;4822465;29;20058;-88
2021/09/25 02:43:21;;;;;;;7.18;5.53;;;17.50;99.90;;;;;;4841026;29;20033;-90
2021/09/25 02:45:47;;;;;;;9.95;6.07;;;17.50;99.90;;;;;;4840066;29;20118;-90
2021/09/25 02:48:12;;;;;;;6.55;5.47;;;17.50;99.90;;;;;;4825341;29;20485;-90
2021/09/25 02:50:38;;;;;;;8.30;5.45;;;17.50;99.90;;;;;;4841111;29;20120;-88
2021/09/25 02:53:04;;;;;;;7.72;5.85;;;17.60;99.90;;;;;;4842560;29;20038;-87
2021/09/25 02:55:30;;;;;;;8.05;5.85;;;17.60;99.90;;;;;;4842595;29;20054;-87
2021/09/25 02:57:55;;;;;;;9.32;6.03;;;17.60;99.90;;;;;;4842482;29;20033;-88
2021/09/25 03:00:22;;;;;;;9.48;5.68;;;17.60;99.90;;;;;;4842133;29;20074;-87
2021/09/25 03:02:48;;;;;;;7.57;5.35;;;17.60;99.90;;;;;;4841053;29;20069;-87
2021/09/25 03:05:15;;;;;;;6.00;5.40;;;17.60;99.90;;;;;;4841472;29;20078;-88
2021/09/25 03:07:40;;;;;;;6.55;5.13;;;17.60;99.90;;;;;;4836935;29;20515;-87
2021/09/25 03:10:07;;;;;;;8.02;5.20;;;17.60;99.90;;;;;;4841634;29;20052;-87
2021/09/25 03:12:34;;;;;;;9.25;5.72;;;17.60;99.90;;;;;;4841484;29;20546;-90
2021/09/25 03:15:00;;;;;;;7.05;5.05;;;17.60;99.90;;;;;;4821919;29;20468;-90
2021/09/25 03:17:26;;;;;;;6.63;5.22;;;17.60;99.90;;;;;;4841190;29;20060;-90
2021/09/25 03:19:51;;;;;;;6.22;4.80;;;17.60;99.90;;;;;;4841112;29;20063;-90
2021/09/25 03:22:17;;;;;;;6.18;4.90;;;17.60;99.90;;;;;;4841366;29;20026;-90
2021/09/25 03:24:44;;;;;;;6.65;4.93;;;17.70;99.90;;;;;;4841460;29;20030;-90
2021/09/25 03:27:10;;;;;;;6.55;4.70;;;17.70;99.90;;;;;;4824698;29;20136;-90
2021/09/25 03:29:36;;;;;;;7.82;4.88;;;17.70;99.90;;;;;;4841680;29;20053;-90
2021/09/25 03:32:02;;;;;;;6.78;5.20;;;17.70;99.90;;;;;;4840372;29;20076;-90
2021/09/25 03:34:28;;;;;;;6.07;4.78;;;17.60;99.90;;;;;;4841366;29;20058;-90
2021/09/25 03:36:54;;;;;;;7.45;4.95;;;17.60;99.90;;;;;;4839672;29;20525;-88
2021/09/25 03:39:20;;;;;;;5.57;4.90;;;17.70;99.90;;;;;;4841033;29;20472;-87
2021/09/25 03:41:45;;;;;;;10.63;5.30;;;17.70;99.90;;;;;;4841065;29;20396;-90
2021/09/25 03:44:11;;;;;;;6.50;4.65;;;17.70;99.90;;;;;;4840992;29;20250;-90
2021/09/25 03:46:37;;;;;;;7.97;4.97;;;17.80;99.90;;;;;;4841048;29;20078;-90
2021/09/25 03:49:03;;;;;;;7.53;4.60;;;17.70;99.90;;;;;;4840844;29;20073;-90
2021/09/25 03:51:29;;;;;;;5.20;4.25;;;17.80;99.90;;;;;;4825141;29;20034;-91
2021/09/25 03:53:54;;;;;;;6.15;4.50;;;17.80;99.90;;;;;;4841448;29;20037;-90
2021/09/25 03:56:20;;;;;;;8.40;4.60;;;17.80;99.90;;;;;;4840425;29;20047;-90
2021/09/25 03:58:46;;;;;;;4.88;4.38;;;17.80;99.90;;;;;;4839734;29;20037;-90
2021/09/25 04:01:12;;;;;;;7.50;4.72;;;17.90;99.90;;;;;;4841015;29;20059;-90
2021/09/25 04:03:38;;;;;;;8.65;4.50;;;17.90;99.90;;;;;;4839690;29;20041;-90
2021/09/25 04:06:04;;;;;;;9.07;4.38;;;17.90;99.90;;;;;;4839330;29;20034;-90
2021/09/25 04:08:33;;;;;;;6.25;4.45;;;18.00;99.90;;;;;;4840924;29;20570;-90
2021/09/25 04:10:59;;;;;;;5.13;4.63;;;17.90;99.90;;;;;;4824324;29;20141;-90
2021/09/25 04:13:25;;;;;;;5.47;4.97;;;17.90;99.90;;;;;;4824163;29;20548;-90
2021/09/25 04:15:51;;;;;;;5.30;4.63;;;17.90;99.90;;;;;;4824233;29;20105;-90
2021/09/25 04:18:16;;;;;;;6.75;5.00;;;17.80;99.90;;;;;;4840554;29;20511;-90
2021/09/25 04:20:42;;;;;;;6.30;5.20;;;17.70;99.90;;;;;;4840071;29;20044;-90
2021/09/25 04:23:08;;;;;;;10.27;4.50;;;17.70;99.90;;;;;;4823998;29;20471;-90
2021/09/25 04:25:34;;;;;;;5.45;4.88;;;17.80;99.90;;;;;;4840278;29;20026;-90
2021/09/25 04:28:05;;;;;;;6.53;4.55;;;17.70;99.90;;;;;;4840253;29;20032;-90
2021/09/25 04:30:32;;;;;;;6.57;4.85;;;17.80;99.90;;;;;;4840256;29;20033;-90
2021/09/25 04:32:58;;;;;;;7.18;4.50;;;17.80;99.90;;;;;;4820580;29;20571;-90
2021/09/25 04:35:23;;;;;;;6.07;4.50;;;17.80;99.90;;;;;;4834712;29;20102;-90
2021/09/25 04:37:50;;;;;;;7.70;5.28;;;17.80;99.90;;;;;;4840446;29;20030;-90
2021/09/25 04:40:16;;;;;;;7.25;4.90;;;17.80;99.90;;;;;;4839197;29;20026;-90
2021/09/25 04:42:42;;;;;;;6.97;5.00;;;17.80;99.90;;;;;;4840336;29;20082;-90
2021/09/25 04:45:13;;;;;;;5.85;5.00;;;17.90;99.90;;;;;;4840590;29;20105;-90
2021/09/25 04:47:43;;;;;;;6.88;4.78;;;17.90;99.90;;;;;;4840468;29;20034;-90
2021/09/25 04:50:12;;;;;;;5.15;4.65;;;17.90;99.90;;;;;;4840493;29;20379;-90
2021/09/25 04:52:38;;;;;;;8.63;4.90;;;17.90;99.90;;;;;;4839806;29;20030;-90
2021/09/25 04:55:04;;;;;;;6.45;4.78;;;17.90;99.90;;;;;;4839021;29;20074;-90
2021/09/25 04:57:30;;;;;;;6.82;5.05;;;17.90;99.90;;;;;;4839928;29;20091;-90
2021/09/25 04:59:56;;;;;;;6.88;4.90;;;17.90;99.90;;;;;;4839975;29;20417;-90
2021/09/25 05:02:22;;;;;;;8.18;4.80;;;17.90;99.90;;;;;;4840252;29;20094;-90
2021/09/25 05:04:48;;;;;;;6.38;5.78;;;17.90;99.90;;;;;;4839690;29;20070;-90
2021/09/25 05:07:14;;;;;;;7.63;5.50;;;17.90;99.90;;;;;;4820161;29;20046;-90
2021/09/25 05:09:40;;;;;;;6.45;5.40;;;17.90;99.90;;;;;;4835575;29;20071;-89
2021/09/25 05:12:05;;;;;;;6.55;5.85;;;17.80;99.90;;;;;;4822354;29;20034;-90
2021/09/25 05:14:33;;;;;;;7.35;5.40;;;17.70;99.90;;;;;;4839275;29;20058;-89
2021/09/25 05:17:00;;;;;;;7.20;5.97;;;17.70;99.90;;;;;;4823409;29;20061;-90
2021/09/25 05:19:25;;;;;;;6.65;5.88;;;17.70;99.90;;;;;;4839697;29;20176;-90
2021/09/25 05:21:51;;;;;;;7.53;5.85;;;17.60;99.90;;;;;;4839898;29;20278;-90
2021/09/25 05:24:19;;;;;;;6.57;5.85;;;17.60;99.90;;;;;;4839921;29;20388;-90
2021/09/25 05:26:46;;;;;;;7.38;5.82;;;17.70;99.90;;;;;;4838572;29;20042;-90
2021/09/25 05:29:12;;;;;;;7.03;5.90;;;17.60;99.90;;;;;;4823152;29;20022;-90
2021/09/25 05:31:37;;;;;;;9.52;6.30;;;17.60;99.90;;;;;;4840183;29;20048;-89
2021/09/25 05:34:03;;;;;;;8.10;6.40;;;17.60;99.90;;;;;;4840013;29;20447;-89
2021/09/25 05:36:29;;;;;;;9.43;6.38;;;17.60;99.90;;;;;;4820660;29;20496;-89
2021/09/25 05:38:55;;;;;;;7.13;6.43;;;17.60;99.90;;;;;;4833723;29;20121;-89
2021/09/25 05:41:21;;;;;;;8.23;6.63;;;17.60;99.90;;;;;;4820732;29;20056;-93
2021/09/25 05:43:50;;;;;;;7.38;6.65;;;17.50;99.90;;;;;;4833664;29;20091;-91
2021/09/25 05:46:17;;;;;;;7.88;6.97;;;17.50;99.90;;;;;;4824175;29;20030;-91
2021/09/25 05:48:42;;;;;;;7.57;6.75;;;17.50;99.90;;;;;;4840154;29;20658;-92
2021/09/25 05:51:10;;;;;;;8.00;6.53;;;17.50;99.90;;;;;;4839573;29;20189;-92
2021/09/25 05:53:36;;;;;;;8.52;6.95;;;17.50;99.90;;;;;;4839744;29;20492;-93
2021/09/25 05:56:02;;;;;;;7.18;6.47;;;17.50;99.90;;;;;;4839760;29;20065;-92
2021/09/25 05:58:28;;;;;;;9.27;6.68;;;17.50;99.90;;;;;;4820461;29;20545;-93
2021/09/25 06:00:54;;;;;;;7.88;7.07;;;17.50;99.90;;;;;;4836737;29;20021;-93
2021/09/25 06:03:20;;;;;;;8.48;7.18;;;17.50;99.90;;;;;;4820308;29;20042;-92
2021/09/25 06:05:46;;;;;;;8.25;7.45;;;17.50;99.90;;;;;;4818595;29;20026;-92
2021/09/25 06:08:12;;;;;;;9.13;7.43;;;17.50;99.90;;;;;;4823379;29;20109;-93
2021/09/25 06:10:38;;;;;;;8.43;7.30;;;17.40;99.90;;;;;;4835358;29;20041;-93
2021/09/25 06:13:06;;;;;;;8.15;7.28;;;17.40;99.90;;;;;;4828638;29;20066;-93
2021/09/25 06:15:32;;;;;;;8.77;7.82;;;17.40;99.90;;;;;;4831134;29;20327;-93
2021/09/25 06:17:59;;;;;;;9.40;7.88;;;17.40;99.90;;;;;;4839602;29;20537;-92
2021/09/25 06:20:25;;;;;;;8.38;7.53;;;17.50;99.90;;;;;;4821841;29;20117;-93
2021/09/25 06:22:51;;;;;;;9.48;7.80;;;17.50;99.90;;;;;;4836952;29;20133;-93
2021/09/25 06:25:17;;;;;;;10.82;8.35;;;17.40;99.90;;;;;;4826580;29;20483;-94
2021/09/25 06:27:43;;;;;;;10.95;8.00;;;17.40;99.90;;;;;;4832742;29;20518;-93
2021/09/25 06:30:09;;;;;;;10.15;8.18;;;17.40;99.90;;;;;;4841795;29;20036;-94
2021/09/25 06:32:35;;;;;;;9.80;7.63;;;17.50;99.90;;;;;;4826562;29;20171;-94
2021/09/25 06:35:02;;;;;;;9.68;7.85;;;17.40;99.90;;;;;;4826225;29;20042;-93
2021/09/25 06:37:27;;;;;;;9.57;8.52;;;17.40;99.90;;;;;;4826564;29;20026;-94
2021/09/25 06:39:53;;;;;;;10.80;8.55;;;17.40;99.90;;;;;;4825972;29;20036;-94
2021/09/25 06:42:19;;;;;;;14.35;8.68;;;17.40;99.90;;;;;;4826302;29;20033;-94
2021/09/25 06:44:44;;;;;;;10.43;8.60;;;17.40;99.90;;;;;;4826195;29;20404;-89
2021/09/25 06:47:10;;;;;;;9.85;8.23;;;17.30;99.90;;;;;;4842036;29;20330;-89
2021/09/25 06:49:36;;;;;;;10.13;9.05;;;17.30;99.90;;;;;;4842012;29;20441;-89
2021/09/25 06:52:02;;;;;;;10.73;9.48;;;17.30;99.90;;;;;;4842080;29;20438;-89
2021/09/25 06:54:31;;;;;;;12.70;9.35;;;17.30;99.90;;;;;;4831956;29;20086;-94
2021/09/25 06:56:57;;;;;;;10.10;9.02;;;17.30;99.90;;;;;;4842304;29;20054;-95
2021/09/25 06:59:23;;;;;;;11.38;8.85;;;17.40;99.90;;;;;;4826281;29;20038;-93
2021/09/25 07:01:48;;;;;;;11.35;9.27;;;17.40;99.90;;;;;;4826100;29;20033;-93
2021/09/25 07:04:14;;;;;;;11.30;9.45;;;17.40;99.90;;;;;;4822052;29;20065;-94
2021/09/25 07:06:40;;;;;;;11.68;9.48;;;17.50;99.90;;;;;;4840602;29;20133;-93
2021/09/25 07:09:07;;;;;;;10.30;9.30;;;17.50;99.90;;;;;;4838013;29;20482;-94
2021/09/25 07:11:33;;;;;;;10.75;9.10;;;17.60;99.90;;;;;;4826506;29;20069;-94
2021/09/25 07:13:59;;;;;;;11.95;9.02;;;17.70;99.90;;;;;;4822764;29;20106;-94
2021/09/25 07:16:25;;;;;;;11.13;8.65;;;17.70;99.90;;;;;;4816996;29;20460;-94
2021/09/25 07:18:50;;;;;;;9.85;8.80;;;17.80;99.90;;;;;;4842194;29;20034;-93
2021/09/25 07:21:16;;;;;;;10.23;9.23;;;17.90;99.90;;;;;;4829349;29;20098;-93
2021/09/25 07:23:42;;;;;;;13.80;8.65;;;17.90;99.90;;;;;;4820439;29;20163;-93
2021/09/25 07:26:07;;;;;;;9.55;8.55;;;18.00;99.90;;;;;;4823256;29;20405;-93
2021/09/25 07:28:33;;;;;;;9.50;8.60;;;18.20;99.90;;;;;;4819555;29;20038;-94
2021/09/25 07:31:02;;;;;;;10.30;8.35;;;18.30;99.90;;;;;;4823302;29;20027;-94
2021/09/25 07:33:27;;;;;;;12.57;8.57;;;18.40;99.90;;;;;;4817387;29;20025;-93
2021/09/25 07:35:54;;;;;;;11.85;9.10;;;18.40;99.90;;;;;;4826981;29;20551;-93
2021/09/25 07:38:21;;;;;;;9.35;8.40;;;18.40;99.90;;;;;;4837167;29;20032;-94
2021/09/25 07:40:47;;;;;;;9.30;8.40;;;18.50;99.90;;;;;;4840223;29;20410;-93
2021/09/25 07:43:12;;;;;;;9.90;7.72;;;18.50;99.90;;;;;;4847441;29;20026;-93
2021/09/25 07:45:40;;;;;;;8.60;7.70;;;18.50;99.90;;;;;;4828286;29;20441;-94
2021/09/25 07:48:09;;;;;;;9.25;7.60;;;18.50;99.90;;;;;;4816824;29;20074;-91
2021/09/25 07:50:34;;;;;;;8.35;7.47;;;18.50;99.90;;;;;;4847042;29;20027;-93
2021/09/25 07:53:01;;;;;;;9.07;8.18;;;18.60;99.90;;;;;;4843123;29;20063;-93
2021/09/25 07:55:27;;;;;;;8.55;7.75;;;18.70;99.90;;;;;;4825538;29;20018;-93
2021/09/25 07:57:53;;;;;;;9.52;8.52;;;18.70;99.90;;;;;;4826686;29;20034;-94
2021/09/25 08:00:20;;;;;;;10.90;8.60;;;18.90;99.90;;;;;;4826515;29;20173;-93
2021/09/25 08:02:46;;;;;;;9.30;8.15;;;19.00;99.90;;;;;;4825793;29;20045;-93
2021/09/25 08:05:12;;;;;;;14.27;8.60;;;19.20;99.90;;;;;;4825499;29;20034;-92
2021/09/25 08:07:38;;;;;;;8.85;7.07;;;19.40;99.90;;;;;;4825640;29;20045;-90
2021/09/25 08:10:06;;;;;;;8.70;7.05;;;19.60;99.90;;;;;;4825486;29;20026;-91
2021/09/25 08:12:32;;;;;;;8.13;7.30;;;19.70;99.90;;;;;;4825602;29;20452;-92
2021/09/25 08:14:58;;;;;;;8.15;7.35;;;19.90;99.90;;;;;;4824222;29;20054;-78
2021/09/25 08:17:25;;;;;;;9.82;7.60;;;20.10;99.90;;;;;;4840359;29;20526;-79
2021/09/25 08:19:51;;;;;;;14.98;7.60;;;20.30;99.90;;;;;;4840642;29;20022;-78
2021/09/25 08:22:19;;;;;;;38.08;9.68;;;20.30;99.90;;;;;;4840391;29;20401;-79
2021/09/25 08:24:45;;;;;;;14.88;6.80;;;20.30;99.90;;;;;;4840225;29;20018;-79
2021/09/25 08:27:11;;;;;;;7.88;7.07;;;20.40;99.90;;;;;;4840554;29;20037;-78
2021/09/25 08:29:37;;;;;;;10.38;6.88;;;20.40;99.90;;;;;;4840230;29;20141;-79
2021/09/25 08:32:04;;;;;;;13.18;7.80;;;20.30;99.90;;;;;;4840245;29;20063;-79
2021/09/25 08:34:29;;;;;;;9.48;7.43;;;20.20;99.90;;;;;;4839040;29;20100;-79
2021/09/25 08:36:55;;;;;;;9.23;7.50;;;20.10;99.90;;;;;;4838772;29;20098;-79
2021/09/25 08:39:21;;;;;;;8.10;7.30;;;20.10;99.90;;;;;;4840029;29;20061;-79
2021/09/25 08:41:51;;;;;;;10.27;7.72;;;20.20;99.90;;;;;;4840288;29;20507;-79
2021/09/25 08:44:16;;;;;;;9.55;7.93;;;20.30;99.90;;;;;;4841004;29;20022;-79
2021/09/25 08:46:42;;;;;;;8.35;7.47;;;20.40;99.90;;;;;;4841409;29;20124;-79
2021/09/25 08:49:08;;;;;;;11.10;7.53;;;20.40;99.90;;;;;;4840724;29;20110;-79
2021/09/25 08:51:35;;;;;;;9.27;7.35;;;20.40;99.90;;;;;;4841919;29;20018;-79
2021/09/25 08:54:05;;;;;;;7.75;6.95;;;20.30;99.90;;;;;;4842240;29;20057;-80
2021/09/25 08:56:31;;;;;;;7.97;6.85;;;20.20;99.90;;;;;;4842102;29;20060;-80
2021/09/25 08:58:58;;;;;;;6.88;6.18;;;20.10;99.90;;;;;;4841826;29;20506;-79
2021/09/25 09:01:28;;;;;;;6.60;5.82;;;20.00;99.90;;;;;;4840898;29;20113;-78
2021/09/25 09:03:54;;;;;;;9.95;6.45;;;19.90;99.90;;;;;;4840900;29;20102;-79
2021/09/25 09:06:26;;;;;;;7.60;6.25;;;19.80;99.90;;;;;;4839338;29;20063;-79
2021/09/25 09:08:53;;;;;;;6.97;6.10;;;19.80;99.90;;;;;;4839648;29;20030;-80
2021/09/25 09:11:21;;;;;;;8.25;6.28;;;19.70;99.90;;;;;;4839852;29;20081;-79
2021/09/25 09:13:56;;;;;;;13.80;7.45;;;19.70;99.90;;;;;;4839248;29;20088;-78
2021/09/25 09:16:22;;;;;;;16.48;7.22;;;19.60;99.90;;;;;;4839504;29;20164;-79
2021/09/25 09:18:49;;;;;;;11.15;7.38;;;19.40;99.90;;;;;;4838936;29;20144;-79
2021/09/25 09:21:30;;;;;;;11.45;8.18;;;19.30;99.90;;;;;;4838930;29;20516;-79
2021/09/25 09:23:58;;;;;;;10.60;7.72;;;19.20;99.90;;;;;;4840629;29;20034;-79
2021/09/25 09:26:35;;;;;;;10.48;7.65;;;19.10;99.90;;;;;;4843163;29;20117;-79
2021/09/25 09:29:03;;;;;;;9.25;7.60;;;19.10;99.90;;;;;;4841631;29;20093;-80
2021/09/25 09:31:28;;;;;;;11.05;7.18;;;19.00;99.90;;;;;;4843138;29;20045;-79
2021/09/25 09:33:57;;;;;;;9.82;7.70;;;19.00;99.90;;;;;;4840852;29;20014;-80
2021/09/25 09:36:22;;;;;;;11.02;7.90;;;19.10;99.90;;;;;;4840615;29;20030;-80
2021/09/25 09:39:01;;;;;;;11.55;8.82;;;19.00;99.90;;;;;;4843720;29;20436;-80
2021/09/25 09:41:33;;;;;;;11.70;8.38;;;19.00;99.90;;;;;;4846155;29;20233;-80
2021/09/25 09:44:10;;;;;;;9.88;7.75;;;19.00;99.90;;;;;;4844519;29;20087;-79
2021/09/25 09:46:42;;;;;;;8.52;7.63;;;19.10;99.90;;;;;;4843314;29;20046;-79
2021/09/25 09:49:15;;;;;;;10.02;8.43;;;19.20;99.90;;;;;;4842868;29;20026;-80
2021/09/25 09:51:56;;;;;;;9.93;8.77;;;19.20;99.90;;;;;;4842221;29;20041;-79
2021/09/25 09:54:21;;;;;;;11.57;9.40;;;19.20;99.90;;;;;;4843550;29;20054;-80
2021/09/25 09:56:49;;;;;;;13.20;9.57;;;19.20;99.90;;;;;;4845124;29;20034;-79
2021/09/25 09:59:15;;;;;;;12.45;9.70;;;19.20;99.90;;;;;;4846175;29;20018;-79
2021/09/25 10:01:42;;;;;;;15.57;10.80;;;19.10;99.90;;;;;;4849141;29;20161;-79
2021/09/25 10:04:09;;;;;;;12.95;9.90;;;19.10;99.90;;;;;;4845044;29;20029;-80
2021/09/25 10:06:36;;;;;;;12.27;10.43;;;19.00;99.90;;;;;;4846731;29;20057;-79
2021/09/25 10:09:11;;;;;;;12.40;9.50;;;19.00;99.90;;;;;;4847743;29;20120;-79
2021/09/25 10:11:38;;;;;;;16.80;9.82;;;19.00;99.90;;;;;;4848511;29;20317;-80
2021/09/25 10:14:06;;;;;;;9.20;8.07;;;19.00;99.90;;;;;;4842347;29;20050;-79
2021/09/25 10:16:33;;;;;;;10.48;8.40;;;18.90;99.90;;;;;;4842281;29;20464;-79
2021/09/25 10:19:01;;;;;;;10.52;7.97;;;18.80;99.90;;;;;;4855474;29;20399;-80
2021/09/25 10:21:30;;;;;;;11.15;8.23;;;18.80;99.90;;;;;;4842509;29;20021;-80
2021/09/25 10:24:02;;;;;;;9.55;8.00;;;18.80;99.90;;;;;;4842362;29;20125;-80
2021/09/25 10:26:29;;;;;;;12.65;8.60;;;18.80;99.90;;;;;;4842209;29;20155;-80
2021/09/25 10:29:04;;;;;;;13.10;9.05;;;18.80;99.90;;;;;;4853488;29;20089;-79
2021/09/25 10:31:30;;;;;;;9.93;8.70;;;18.70;99.90;;;;;;4842846;29;20411;-80
2021/09/25 10:34:32;;;;;;;15.93;9.35;;;18.80;99.90;;;;;;4842406;29;20026;-79
2021/09/25 10:36:58;;;;;;;11.32;8.30;;;18.80;99.90;;;;;;4841078;29;20531;-80
2021/09/25 10:39:36;;;;;;;12.23;8.90;;;18.80;99.90;;;;;;4842580;29;20079;-79
2021/09/25 10:42:12;;;;;;;24.65;9.90;;;18.80;99.90;;;;;;4842097;29;20064;-79
2021/09/25 10:44:52;;;;;;;10.65;8.75;;;18.90;99.90;;;;;;4842073;29;20299;-79
2021/09/25 10:47:18;;;;;;;12.32;9.50;;;18.90;99.90;;;;;;4841865;29;20041;-79
2021/09/25 10:49:54;;;;;;;11.18;8.43;;;18.70;99.90;;;;;;4841789;29;20022;-78
2021/09/25 10:52:41;;;;;;;12.00;9.23;;;18.60;99.90;;;;;;4842094;29;20042;-78
2021/09/25 10:55:19;;;;;;;11.93;9.55;;;18.60;99.90;;;;;;4841978;29;20083;-78
2021/09/25 10:58:15;;;;;;;11.48;9.13;;;18.40;99.90;;;;;;4841844;29;20037;-78
2021/09/25 11:00:47;;;;;;;11.45;9.32;;;18.40;99.90;;;;;;4829353;29;20025;-78
2021/09/25 11:03:41;;;;;;;12.23;9.32;;;18.30;99.90;;;;;;4842083;29;20499;-79
2021/09/25 11:06:23;;;;;;;12.60;9.48;;;18.40;99.90;;;;;;4841054;29;20129;-79
2021/09/25 11:09:05;;;;;;;12.48;9.63;;;18.40;99.90;;;;;;4841740;29;20018;-78
2021/09/25 11:11:30;;;;;;;13.52;10.68;;;18.40;99.90;;;;;;4822009;29;20551;-79
2021/09/25 11:14:02;;;;;;;14.43;10.68;;;18.40;99.90;;;;;;4839025;29;20050;-78
2021/09/25 11:16:55;;;;;;;14.48;11.50;;;18.50;99.90;;;;;;4841531;29;20556;-79
2021/09/25 11:19:21;;;;;;;13.00;11.57;;;18.40;99.90;;;;;;4841070;29;20026;-78
2021/09/25 11:22:12;;;;;;;21.48;16.13;;;18.40;99.90;;;;;;4841392;29;20396;-79
2021/09/25 11:25:08;;;;;;;19.80;14.35;;;18.40;99.90;;;;;;4826294;29;20066;-78
2021/09/25 11:27:42;;;;;;;13.85;12.20;;;18.60;99.90;;;;;;4829283;29;20057;-78
2021/09/25 11:30:18;;;;;;;15.50;12.50;;;18.70;99.90;;;;;;4841394;29;20030;-78
2021/09/25 11:32:50;;;;;;;11.63;10.23;;;18.90;99.90;;;;;;4841218;29;20502;-78
2021/09/25 11:35:18;;;;;;;16.70;11.70;;;19.10;99.90;;;;;;4840857;29;20113;-78
2021/09/25 11:38:06;;;;;;;15.20;9.90;;;19.20;99.90;;;;;;4841252;29;20026;-78
2021/09/25 11:40:38;;;;;;;11.05;9.77;;;19.40;99.90;;;;;;4841095;29;20407;-78
2021/09/25 11:43:07;;;;;;;13.45;10.20;;;19.40;99.90;;;;;;4841343;29;20057;-79
2021/09/25 11:45:36;;;;;;;11.10;9.38;;;19.40;99.90;;;;;;4840736;29;20055;-78
2021/09/25 11:48:03;;;;;;;11.73;9.77;;;19.50;99.90;;;;;;4841125;29;20042;-79
2021/09/25 11:50:32;;;;;;;12.30;10.15;;;19.50;99.90;;;;;;4841048;29;20113;-79
2021/09/25 11:53:04;;;;;;;14.32;10.48;;;19.60;99.90;;;;;;4840577;29;20126;-79
2021/09/25 11:55:31;;;;;;;11.82;10.65;;;19.80;99.90;;;;;;4840881;29;20026;-79
2021/09/25 11:58:05;;;;;;;11.88;10.63;;;20.10;99.90;;;;;;4840710;29;20018;-79
2021/09/25 12:00:35;;;;;;;12.05;9.52;;;20.40;99.90;;;;;;4821471;29;20165;-81
2021/09/25 12:03:09;;;;;;;10.38;8.82;;;20.80;99.90;;;;;;4839403;29;20530;-79
2021/09/25 12:05:41;;;;;;;15.65;9.43;;;21.00;99.90;;;;;;4840668;29;20030;-79
2021/09/25 12:08:17;;;;;;;12.65;7.80;;;21.20;99.90;;;;;;4840561;29;20042;-79
2021/09/25 12:10:44;;;;;;;9.40;8.32;;;21.30;99.90;;;;;;4840738;29;20038;-80
2021/09/25 12:13:41;;;;;;;11.38;9.18;;;21.40;99.90;;;;;;4840462;29;20033;-80
2021/09/25 12:16:06;;;;;;;11.65;8.43;;;21.40;99.90;;;;;;4835809;29;20534;-79
2021/09/25 12:18:35;;;;;;;8.98;7.90;;;21.60;99.90;;;;;;4839830;29;20029;-79
2021/09/25 12:21:08;;;;;;;9.57;8.55;;;21.60;99.90;;;;;;4821261;29;20065;-78
2021/09/25 12:23:35;;;;;;;9.18;8.18;;;21.50;99.90;;;;;;4839996;29;20622;-79
2021/09/25 12:26:02;;;;;;;10.57;8.50;;;21.50;99.90;;;;;;4840494;29;20105;-77
2021/09/25 12:28:47;;;;;;;11.55;9.35;;;21.40;99.90;;;;;;4840398;29;20030;-78
2021/09/25 12:31:16;;;;;;;8.65;7.47;;;21.30;99.90;;;;;;4840203;29;20033;-78
2021/09/25 12:33:51;;;;;;;10.57;8.40;;;21.50;99.90;;;;;;4840223;29;20022;-78
2021/09/25 12:36:17;;;;;;;8.43;7.30;;;21.80;99.90;;;;;;4840131;29;20175;-78
2021/09/25 12:38:45;;;;;;;10.25;7.45;;;22.00;99.90;;;;;;4840127;29;20042;-78
2021/09/25 12:41:23;;;;;;;9.80;6.88;;;22.10;99.90;;;;;;4840468;29;20068;-78
2021/09/25 12:43:53;;;;;;;9.65;7.35;;;22.40;99.90;;;;;;4840063;29;20026;-77